createdAt,value
2023-03-07T00:01:33.148Z,13.95
2023-03-07T00:04:01.697Z,13.85
2023-03-07T00:06:32.981Z,15.50
2023-03-07T00:09:02.588Z,13.45
2023-03-07T00:11:33.934Z,13.98
2023-03-07T00:14:20.688Z,21.10
2023-03-07T00:16:52.534Z,11.80
2023-03-07T00:21:52.587Z,17.73
2023-03-07T00:24:24.947Z,17.27
2023-03-07T00:26:53.779Z,19.42
2023-03-07T00:29:22.926Z,20.10
2023-03-07T00:32:22.877Z,23.55
2023-03-07T00:34:57.936Z,22.98
2023-03-07T00:37:31.131Z,28.20
2023-03-07T00:40:01.054Z,29.05
2023-03-07T00:42:33.111Z,21.38
2023-03-07T00:45:02.017Z,22.38
2023-03-07T00:47:32.960Z,30.75
2023-03-07T00:50:03.259Z,23.50
2023-03-07T00:52:39.241Z,24.70
2023-03-07T00:55:14.604Z,26.60
2023-03-07T00:57:52.168Z,22.90
2023-03-07T01:00:33.949Z,20.63
2023-03-07T01:03:24.697Z,19.48
2023-03-07T01:12:15.802Z,17.63
2023-03-07T01:15:18.380Z,16.48
2023-03-07T01:17:51.055Z,15.88
2023-03-07T01:20:28.241Z,19.83
2023-03-07T01:23:03.408Z,17.33
2023-03-07T01:26:25.927Z,22.08
2023-03-07T01:29:34.601Z,14.73
2023-03-07T01:32:15.223Z,16.08
2023-03-07T01:34:54.240Z,15.70
2023-03-07T01:37:31.920Z,14.82
2023-03-07T01:40:41.793Z,14.07
2023-03-07T01:48:14.541Z,15.10
2023-03-07T01:50:47.313Z,17.15
2023-03-07T01:53:16.660Z,15.93
2023-03-07T01:55:47.954Z,17.80
2023-03-07T01:58:41.627Z,16.98
2023-03-07T02:01:33.827Z,13.73
2023-03-07T02:04:59.125Z,20.40
2023-03-07T02:08:23.635Z,14.13
2023-03-07T02:20:12.649Z,14.13
2023-03-07T02:24:50.509Z,14.27
2023-03-07T02:28:23.596Z,17.00
2023-03-07T02:31:07.998Z,15.55
2023-03-07T02:33:40.034Z,15.95
2023-03-07T02:36:29.046Z,20.17
2023-03-07T02:42:34.069Z,16.83
2023-03-07T02:45:40.763Z,16.20
2023-03-07T02:48:15.396Z,18.73
2023-03-07T02:50:51.484Z,16.00
2023-03-07T02:53:20.155Z,19.35
2023-03-07T02:55:52.233Z,18.27
2023-03-07T02:58:29.700Z,15.48
2023-03-07T03:01:00.438Z,18.13
2023-03-07T03:03:45.968Z,15.10
2023-03-07T03:10:20.984Z,20.50
2023-03-07T03:13:13.072Z,16.25
2023-03-07T03:15:44.017Z,15.77
2023-03-07T03:18:18.522Z,16.35
2023-03-07T03:20:49.503Z,17.02
2023-03-07T03:23:18.814Z,17.80
2023-03-07T03:32:41.493Z,15.95
2023-03-07T03:35:15.145Z,20.83
2023-03-07T03:38:26.480Z,16.55
2023-03-07T03:41:05.923Z,18.13
2023-03-07T03:43:38.358Z,16.33
2023-03-07T03:46:07.298Z,16.02
2023-03-07T03:48:38.345Z,18.67
2023-03-07T03:51:12.534Z,17.07
2023-03-07T03:53:42.808Z,21.05
2023-03-07T03:56:30.213Z,21.08
2023-03-07T03:58:58.655Z,19.98
2023-03-07T04:01:30.988Z,18.65
2023-03-07T04:03:59.617Z,18.65
2023-03-07T04:06:30.714Z,19.40
2023-03-07T04:09:05.149Z,16.23
2023-03-07T04:11:35.061Z,17.08
2023-03-07T04:14:04.853Z,20.75
2023-03-07T04:16:35.938Z,17.65
2023-03-07T04:19:07.403Z,16.30
2023-03-07T04:21:36.887Z,20.98
2023-03-07T04:24:09.242Z,17.35
2023-03-07T04:26:37.970Z,20.88
2023-03-07T04:29:06.513Z,17.23
2023-03-07T04:31:43.662Z,18.75
2023-03-07T04:34:12.809Z,15.82
2023-03-07T04:36:43.449Z,18.27
2023-03-07T04:39:13.964Z,16.48
2023-03-07T04:41:44.118Z,15.48
2023-03-07T04:44:21.441Z,18.98
2023-03-07T04:46:49.350Z,18.13
2023-03-07T04:49:18.128Z,19.77
2023-03-07T04:51:49.542Z,16.58
2023-03-07T04:54:25.101Z,17.33
2023-03-07T04:56:54.216Z,17.75
2023-03-07T04:59:28.899Z,15.60
2023-03-07T05:01:59.863Z,23.77
2023-03-07T05:04:28.789Z,24.35
2023-03-07T05:06:57.160Z,23.52
2023-03-07T05:09:25.291Z,30.52
2023-03-07T05:11:54.215Z,35.13
2023-03-07T05:14:23.303Z,26.00
2023-03-07T05:16:53.115Z,24.00
2023-03-07T05:19:22.934Z,26.40
2023-03-07T05:22:12.072Z,25.40
2023-03-07T05:24:41.086Z,22.70
2023-03-07T05:27:11.179Z,21.05
2023-03-07T05:29:39.196Z,21.65
2023-03-07T05:32:08.693Z,23.58
2023-03-07T05:34:47.500Z,21.10
2023-03-07T05:37:23.765Z,23.42
2023-03-07T05:39:52.146Z,21.65
2023-03-07T05:42:20.601Z,24.88
2023-03-07T05:44:50.614Z,24.45
2023-03-07T05:47:33.550Z,24.90
2023-03-07T05:50:16.367Z,25.42
2023-03-07T05:56:06.890Z,23.98
2023-03-07T05:58:45.778Z,24.25
2023-03-07T06:01:27.808Z,27.63
2023-03-07T06:03:58.926Z,20.95
2023-03-07T06:06:30.408Z,23.03
2023-03-07T06:09:10.205Z,20.23
2023-03-07T06:11:45.562Z,25.40
2023-03-07T06:14:14.128Z,21.67
2023-03-07T06:16:50.530Z,24.02
2023-03-07T06:19:22.464Z,20.10
2023-03-07T06:21:56.749Z,18.65
2023-03-07T06:24:35.824Z,20.25
2023-03-07T06:27:11.443Z,17.27
2023-03-07T06:29:44.378Z,21.55
2023-03-07T06:32:36.712Z,16.15
2023-03-07T06:35:20.425Z,19.30
2023-03-07T06:37:56.531Z,22.38
2023-03-07T06:40:51.723Z,16.85
2023-03-07T06:43:24.054Z,17.08
2023-03-07T06:45:57.511Z,17.50
2023-03-07T06:48:42.974Z,18.80
2023-03-07T06:51:22.409Z,16.38
2023-03-07T06:54:04.088Z,18.83
2023-03-07T06:56:36.094Z,18.05
2023-03-07T06:59:09.317Z,19.70
2023-03-07T07:01:41.537Z,18.48
2023-03-07T07:04:11.941Z,19.42
2023-03-07T07:06:45.393Z,20.02
2023-03-07T07:09:14.355Z,19.15
2023-03-07T07:11:42.546Z,21.90
2023-03-07T07:14:13.951Z,21.05
2023-03-07T07:16:44.436Z,19.30
2023-03-07T07:19:13.050Z,26.33
2023-03-07T07:21:45.724Z,23.20
2023-03-07T07:24:16.931Z,16.38
2023-03-07T07:26:44.951Z,19.67
2023-03-07T07:29:13.028Z,22.15
2023-03-07T07:31:41.384Z,22.30
2023-03-07T07:34:09.562Z,24.15
2023-03-07T07:36:38.248Z,20.80
2023-03-07T07:39:09.293Z,21.95
2023-03-07T07:41:39.510Z,23.13
2023-03-07T07:44:07.561Z,20.33
2023-03-07T07:46:43.876Z,23.42
2023-03-07T07:49:13.324Z,25.17
2023-03-07T07:51:41.633Z,20.60
2023-03-07T07:54:09.778Z,19.25
2023-03-07T07:56:38.690Z,20.55
2023-03-07T07:59:06.732Z,19.13
2023-03-07T08:01:38.308Z,21.65
2023-03-07T08:04:11.754Z,20.45
2023-03-07T08:06:44.634Z,20.63
2023-03-07T08:09:15.977Z,18.70
2023-03-07T08:11:48.566Z,23.65
2023-03-07T08:14:17.345Z,23.97
2023-03-07T08:16:45.322Z,18.67
2023-03-07T08:19:13.274Z,25.27
2023-03-07T08:21:41.257Z,19.70
2023-03-07T08:24:14.801Z,30.63
2023-03-07T08:26:48.813Z,23.98
2023-03-07T08:29:16.890Z,20.40
2023-03-07T08:31:51.499Z,22.70
2023-03-07T08:34:19.704Z,21.42
2023-03-07T08:36:47.832Z,20.75
2023-03-07T08:39:20.077Z,18.90
2023-03-07T08:41:48.048Z,18.98
2023-03-07T08:44:15.954Z,18.00
2023-03-07T08:46:43.780Z,20.83
2023-03-07T08:49:12.119Z,23.58
2023-03-07T08:51:43.159Z,20.60
2023-03-07T08:54:11.186Z,16.98
2023-03-07T08:56:39.291Z,21.23
2023-03-07T08:59:07.053Z,18.65
2023-03-07T09:01:34.989Z,19.33
2023-03-07T09:04:03.276Z,21.30
2023-03-07T09:06:34.181Z,23.48
2023-03-07T09:09:08.758Z,29.65
2023-03-07T09:11:38.747Z,21.65
2023-03-07T09:14:09.324Z,22.60
2023-03-07T09:16:37.487Z,22.98
2023-03-07T09:19:05.899Z,22.50
2023-03-07T09:21:33.973Z,21.67
2023-03-07T09:24:02.259Z,28.33
2023-03-07T09:26:33.343Z,21.98
2023-03-07T09:29:01.315Z,25.52
2023-03-07T09:31:30.122Z,34.95
2023-03-07T09:34:01.874Z,23.88
2023-03-07T09:36:29.651Z,23.77
2023-03-07T09:39:01.079Z,23.10
2023-03-07T09:42:06.472Z,24.45
2023-03-07T09:44:40.672Z,26.08
2023-03-07T09:47:39.534Z,25.00
2023-03-07T09:50:23.024Z,25.83
2023-03-07T09:52:57.010Z,25.67
2023-03-07T09:55:26.599Z,20.42
2023-03-07T09:57:58.883Z,23.55
2023-03-07T10:00:34.014Z,21.00
2023-03-07T10:03:25.101Z,19.83
2023-03-07T10:05:59.452Z,21.27
2023-03-07T10:08:34.023Z,20.17
2023-03-07T10:11:23.585Z,19.95
2023-03-07T10:14:13.648Z,19.65
2023-03-07T10:17:03.430Z,20.67
2023-03-07T10:19:34.538Z,19.52
2023-03-07T10:22:30.160Z,23.77
2023-03-07T10:25:17.308Z,23.95
2023-03-07T10:27:48.165Z,18.58
2023-03-07T10:30:19.755Z,21.98
2023-03-07T10:33:01.325Z,18.27
2023-03-07T10:35:44.186Z,16.63
2023-03-07T10:39:01.880Z,15.68
2023-03-07T10:41:30.391Z,16.95
2023-03-07T10:43:58.400Z,15.23
2023-03-07T10:46:30.998Z,18.35
2023-03-07T10:49:10.723Z,15.85
2023-03-07T10:51:52.046Z,18.63
2023-03-07T10:54:30.079Z,14.32
2023-03-07T10:57:11.438Z,15.80
2023-03-07T10:59:47.560Z,15.60
2023-03-07T11:02:36.843Z,18.10
2023-03-07T11:05:33.528Z,15.90
2023-03-07T11:08:28.577Z,19.70
2023-03-07T11:10:58.787Z,16.52
2023-03-07T11:13:29.106Z,17.05
2023-03-07T11:16:19.565Z,19.60
2023-03-07T11:18:48.223Z,19.00
2023-03-07T11:21:36.104Z,20.30
2023-03-07T11:24:25.229Z,19.30
2023-03-07T11:26:55.537Z,21.00
2023-03-07T11:29:24.988Z,24.23
2023-03-07T11:32:14.221Z,35.13
2023-03-07T11:34:53.742Z,24.83
2023-03-07T11:37:44.898Z,20.35
2023-03-07T11:40:45.179Z,19.95
2023-03-07T11:43:37.569Z,24.65
2023-03-07T11:46:12.255Z,25.08
2023-03-07T11:49:02.149Z,20.90
2023-03-07T11:52:01.430Z,21.50
2023-03-07T11:54:51.099Z,22.48
2023-03-07T11:57:27.411Z,25.02
2023-03-07T12:00:16.508Z,18.85
2023-03-07T12:03:03.189Z,25.13
2023-03-07T12:06:00.572Z,23.60
2023-03-07T12:08:37.208Z,18.55
2023-03-07T12:11:16.806Z,27.20
2023-03-07T12:13:54.778Z,18.92
2023-03-07T12:16:45.210Z,19.23
2023-03-07T12:19:15.415Z,26.88
2023-03-07T12:21:52.040Z,17.25
2023-03-07T12:24:25.497Z,24.40
2023-03-07T12:27:02.748Z,18.63
2023-03-07T12:30:07.294Z,20.73
2023-03-07T12:32:36.501Z,19.27
2023-03-07T12:35:24.883Z,29.00
2023-03-07T12:38:08.290Z,16.90
2023-03-07T12:40:42.480Z,15.70
2023-03-07T12:43:33.518Z,16.48
2023-03-07T12:46:16.729Z,16.80
2023-03-07T12:49:08.284Z,17.05
2023-03-07T12:51:43.571Z,16.58
2023-03-07T12:54:25.466Z,20.98
2023-03-07T12:57:18.949Z,15.95
2023-03-07T12:59:46.839Z,18.58
2023-03-07T13:02:21.484Z,17.30
2023-03-07T13:04:49.503Z,18.42
2023-03-07T13:07:28.269Z,16.02
2023-03-07T13:09:58.884Z,17.27
2023-03-07T13:12:37.711Z,15.65
2023-03-07T13:15:17.584Z,15.97
2023-03-07T13:17:47.835Z,20.02
2023-03-07T13:20:15.737Z,17.38
2023-03-07T13:22:47.399Z,14.98
2023-03-07T13:25:21.153Z,13.57
2023-03-07T13:27:51.753Z,19.30
2023-03-07T13:30:30.252Z,14.90
2023-03-07T13:33:01.959Z,17.15
2023-03-07T13:35:33.582Z,17.00
2023-03-07T13:38:22.792Z,19.40
2023-03-07T13:41:03.293Z,16.83
2023-03-07T13:46:00.906Z,17.27
2023-03-07T13:48:29.272Z,15.27
2023-03-07T13:51:00.242Z,16.27
2023-03-07T13:53:28.561Z,19.98
2023-03-07T13:56:15.428Z,19.92
2023-03-07T13:59:28.326Z,13.93
2023-03-07T14:02:04.335Z,16.98
2023-03-07T14:04:50.081Z,18.02
2023-03-07T14:07:28.102Z,18.70
2023-03-07T14:10:21.442Z,20.57
2023-03-07T14:13:22.844Z,14.65
2023-03-07T14:15:57.118Z,16.58
2023-03-07T14:18:24.750Z,15.13
2023-03-07T14:21:09.623Z,15.93
2023-03-07T14:23:55.801Z,17.23
2023-03-07T14:26:26.354Z,14.50
2023-03-07T14:29:01.864Z,16.17
2023-03-07T14:31:37.474Z,15.52
2023-03-07T14:34:29.827Z,15.63
2023-03-07T14:37:19.138Z,16.10
2023-03-07T14:40:09.202Z,14.18
2023-03-07T14:42:51.159Z,13.10
2023-03-07T14:45:43.264Z,16.20
2023-03-07T14:48:15.565Z,17.05
2023-03-07T14:50:44.896Z,22.35
2023-03-07T14:53:20.811Z,17.42
2023-03-07T14:55:51.768Z,15.98
2023-03-07T14:58:23.316Z,16.15
2023-03-07T15:01:02.731Z,22.25
2023-03-07T15:03:31.590Z,16.05
2023-03-07T15:06:01.327Z,16.52
2023-03-07T15:08:38.705Z,168.65
2023-03-07T15:11:23.919Z,44.35
2023-03-07T15:13:55.138Z,15.48
2023-03-07T15:16:39.958Z,16.38
2023-03-07T15:19:22.745Z,13.55
2023-03-07T15:21:58.157Z,19.33
2023-03-07T15:24:25.666Z,20.40
2023-03-07T15:26:55.692Z,18.70
2023-03-07T15:29:25.851Z,20.90
2023-03-07T15:32:03.988Z,20.17
2023-03-07T15:34:34.823Z,19.13
2023-03-07T15:37:24.118Z,20.98
2023-03-07T15:40:35.242Z,16.20
2023-03-07T15:43:04.531Z,16.50
2023-03-07T15:45:36.106Z,15.48
2023-03-07T15:48:35.834Z,20.23
2023-03-07T15:53:40.807Z,19.10
2023-03-07T15:56:26.406Z,21.15
2023-03-07T15:59:01.343Z,29.67
2023-03-07T16:04:04.137Z,20.90
2023-03-07T16:06:42.440Z,14.23
2023-03-07T16:09:14.187Z,40.03
2023-03-07T16:11:44.060Z,29.33
2023-03-07T16:14:26.173Z,27.13
2023-03-07T16:17:00.144Z,21.42
2023-03-07T16:19:28.043Z,19.60
2023-03-07T16:21:56.326Z,20.77
2023-03-07T16:24:24.331Z,17.35
2023-03-07T16:26:52.054Z,19.55
2023-03-07T16:29:22.611Z,18.60
2023-03-07T16:31:50.803Z,13.82
2023-03-07T16:34:21.476Z,21.95
2023-03-07T16:36:49.392Z,19.30
2023-03-07T16:39:18.547Z,20.40
2023-03-07T16:41:48.277Z,17.70
2023-03-07T16:47:15.816Z,16.77
2023-03-07T16:49:44.487Z,18.13
2023-03-07T16:52:13.985Z,23.53
2023-03-07T16:54:42.002Z,23.45
2023-03-07T16:57:17.300Z,21.25
2023-03-07T16:59:48.406Z,29.80
2023-03-07T17:02:19.196Z,32.53
2023-03-07T17:04:47.334Z,27.35
2023-03-07T17:07:19.084Z,28.48
2023-03-07T17:09:47.140Z,27.70
2023-03-07T17:12:16.520Z,25.33
2023-03-07T17:14:46.848Z,25.30
2023-03-07T17:17:21.007Z,24.30
2023-03-07T17:19:49.284Z,23.88
2023-03-07T17:22:20.373Z,27.08
2023-03-07T17:24:48.091Z,21.75
2023-03-07T17:27:20.592Z,23.25
2023-03-07T17:29:52.888Z,22.80
2023-03-07T17:32:20.863Z,22.77
2023-03-07T17:34:49.553Z,23.77
2023-03-07T17:37:17.934Z,27.33
2023-03-07T17:39:46.065Z,31.88
2023-03-07T17:42:20.343Z,30.98
2023-03-07T17:44:48.305Z,29.50
2023-03-07T17:47:17.677Z,29.00
2023-03-07T17:49:46.891Z,26.65
2023-03-07T17:52:15.018Z,31.85
2023-03-07T17:54:45.929Z,31.98
2023-03-07T17:57:14.057Z,29.13
2023-03-07T17:59:42.797Z,33.92
2023-03-07T18:02:13.636Z,28.00
2023-03-07T18:04:41.754Z,30.60
2023-03-07T18:07:09.569Z,29.38
2023-03-07T18:09:41.269Z,31.50
2023-03-07T18:12:09.493Z,30.60
2023-03-07T18:14:38.946Z,29.35
2023-03-07T18:17:06.682Z,32.70
2023-03-07T18:19:34.436Z,30.80
2023-03-07T18:22:02.336Z,37.17
2023-03-07T18:24:30.375Z,36.13
2023-03-07T18:26:59.635Z,43.45
2023-03-07T18:29:29.016Z,42.58
2023-03-07T18:31:56.690Z,45.33
2023-03-07T18:34:25.605Z,40.40
2023-03-07T18:36:54.440Z,39.63
2023-03-07T18:39:23.395Z,38.72
2023-03-07T18:41:51.572Z,36.63
2023-03-07T18:44:19.806Z,40.35
2023-03-07T18:46:49.655Z,37.22
2023-03-07T18:49:17.956Z,39.20
2023-03-07T18:51:46.242Z,38.75
2023-03-07T18:54:15.354Z,36.90
2023-03-07T18:56:47.404Z,38.67
2023-03-07T18:59:17.364Z,37.60
2023-03-07T19:01:50.334Z,38.53
2023-03-07T19:04:18.484Z,41.38
2023-03-07T19:06:47.643Z,40.92
2023-03-07T19:09:17.493Z,38.53
2023-03-07T19:11:47.677Z,39.22
2023-03-07T19:14:16.923Z,40.15
2023-03-07T19:16:45.166Z,39.17
2023-03-07T19:19:13.753Z,42.93
2023-03-07T19:21:41.562Z,38.60
2023-03-07T19:24:11.474Z,39.22
2023-03-07T19:26:41.710Z,44.88
2023-03-07T19:29:12.192Z,43.55
2023-03-07T19:31:43.912Z,39.35
2023-03-07T19:34:11.828Z,38.90
2023-03-07T19:36:41.705Z,40.28
2023-03-07T19:39:20.474Z,41.15
2023-03-07T19:41:48.404Z,45.88
2023-03-07T19:44:16.704Z,46.67
2023-03-07T19:46:47.337Z,41.90
2023-03-07T19:49:19.669Z,44.13
2023-03-07T19:51:47.497Z,39.70
2023-03-07T19:54:15.780Z,41.03
2023-03-07T19:56:45.760Z,42.38
2023-03-07T19:59:13.841Z,46.72
2023-03-07T20:01:43.105Z,50.83
2023-03-07T20:04:16.112Z,47.92
2023-03-07T20:06:45.080Z,46.65
2023-03-07T20:09:13.486Z,46.80
2023-03-07T20:11:43.409Z,45.88
2023-03-07T20:14:16.128Z,48.45
2023-03-07T20:16:45.643Z,43.47
2023-03-07T20:19:14.385Z,42.95
2023-03-07T20:21:49.824Z,48.30
2023-03-07T20:24:18.886Z,39.47
2023-03-07T20:26:48.034Z,41.05
2023-03-07T20:29:16.471Z,41.35
2023-03-07T20:31:44.563Z,40.42
2023-03-07T20:34:13.070Z,46.27
2023-03-07T20:36:43.694Z,42.30
2023-03-07T20:39:14.696Z,43.63
2023-03-07T20:41:43.662Z,46.00
2023-03-07T20:44:13.564Z,46.95
2023-03-07T20:49:13.199Z,51.28
2023-03-07T20:51:42.441Z,42.38
2023-03-07T20:54:15.698Z,46.00
2023-03-07T20:56:45.165Z,45.40
2023-03-07T20:59:19.277Z,44.15
2023-03-07T21:01:47.969Z,48.00
2023-03-07T21:04:18.641Z,45.03
2023-03-07T21:06:50.431Z,49.35
2023-03-07T21:09:19.075Z,51.38
2023-03-07T21:11:50.126Z,48.85
2023-03-07T21:14:20.494Z,47.60
2023-03-07T21:16:52.183Z,49.85
2023-03-07T21:19:21.177Z,49.15
2023-03-07T21:21:49.003Z,59.60
2023-03-07T21:24:26.612Z,51.15
2023-03-07T21:26:54.609Z,51.90
2023-03-07T21:29:22.416Z,58.97
2023-03-07T21:31:52.396Z,49.72
2023-03-07T21:34:20.621Z,57.63
2023-03-07T21:36:56.188Z,48.78
2023-03-07T21:39:25.897Z,47.10
2023-03-07T21:41:54.362Z,46.10
2023-03-07T21:44:25.257Z,49.70
2023-03-07T21:46:53.081Z,46.13
2023-03-07T21:49:21.798Z,54.58
2023-03-07T21:51:49.768Z,51.15
2023-03-07T21:54:17.615Z,56.05
2023-03-07T21:56:45.377Z,60.78
2023-03-07T21:59:13.665Z,51.63
2023-03-07T22:01:42.425Z,51.83
2023-03-07T22:04:10.736Z,60.67
2023-03-07T22:06:38.685Z,52.53
2023-03-07T22:09:12.098Z,55.38
2023-03-07T22:11:40.293Z,54.95
2023-03-07T22:14:09.865Z,57.63
2023-03-07T22:16:40.906Z,53.65
2023-03-07T22:19:08.946Z,55.30
2023-03-07T22:21:38.169Z,55.60
2023-03-07T22:24:11.472Z,57.33
2023-03-07T22:26:39.848Z,59.63
2023-03-07T22:29:07.567Z,64.13
2023-03-07T22:31:39.496Z,74.13
2023-03-07T22:34:08.536Z,72.45
2023-03-07T22:36:36.949Z,79.90
2023-03-07T22:39:07.418Z,73.00
2023-03-07T22:41:41.072Z,69.82
2023-03-07T22:44:09.539Z,67.57
2023-03-07T22:46:37.834Z,73.30
2023-03-07T22:49:05.696Z,72.55
2023-03-07T22:51:35.673Z,72.45
2023-03-07T22:54:05.085Z,69.82
2023-03-07T22:56:34.003Z,63.92
2023-03-07T22:59:05.768Z,68.95
2023-03-07T23:01:34.238Z,67.78
2023-03-07T23:04:02.537Z,70.88
2023-03-07T23:06:37.013Z,70.45
2023-03-07T23:09:07.357Z,74.25
2023-03-07T23:11:38.032Z,77.50
2023-03-07T23:14:07.905Z,65.90
2023-03-07T23:16:49.835Z,65.20
2023-03-07T23:19:21.496Z,68.82
2023-03-07T23:21:50.081Z,72.55
2023-03-07T23:26:48.939Z,75.65
2023-03-07T23:29:17.018Z,72.18
2023-03-07T23:31:45.802Z,75.63
2023-03-07T23:34:36.542Z,73.68
2023-03-07T23:37:05.700Z,75.00
2023-03-07T23:40:01.302Z,75.07
2023-03-07T23:42:47.548Z,66.53
2023-03-07T23:45:16.542Z,69.30
2023-03-07T23:47:46.627Z,67.70
2023-03-07T23:50:21.305Z,78.03
2023-03-07T23:52:50.360Z,64.75
2023-03-07T23:55:18.914Z,69.72
2023-03-07T23:57:48.742Z,66.05
